Beloit, Kansas
Current Conditions -  °F | °C
As of 4:55 PM on Thursday 23 Oct 2014 (Local Time) from KCNK Reporting Station
Clear Clear  
Wind Chill: 73°   Ceiling: Unl
Heat Index: 73°   Visibility: 10mi
Dew Point: 56°   Wind: 6mph
Humidity: 55%   Direction: 220°SW
Pressure: 30.02"   Gusts: NA
Location:  39.46°N, 98.11°W
Report Text: KCNK 232155Z AUTO 22005KT 10SM CLR 23/13 A3002 RMK AO2 SLP155 T02280133
Loading
Personal Weather Stations






























Interactive Weather Map New forecast layout! Learn more

10-Day Weather Forecast

Advertisements
Track Severe Weather on mobile